Time;durP1;ratioP1;P1;durP2;ratioP2;P2;SDS_P1;SDS_P2;PMS_P1;PMS_P2;Temp;Humidity;BMP_temperature;BMP_pressure;BME280_temperature;BME280_humidity;BME280_pressure;Samples;Min_cycle;Max_cycle;Signal;HPM_P1;HPM_P2
2022/07/28 00:01:47;;;;;;;;;3.00;2.00;;;;;22.17;34.98;101089.50;4948016;28;45240;-60
2022/07/28 00:04:12;;;;;;;;;3.67;3.67;;;;;22.16;35.05;101092.25;4936016;28;45881;-66
2022/07/28 00:06:38;;;;;;;;;6.00;3.00;;;;;22.08;35.18;101074.25;4943263;28;45134;-62
2022/07/28 00:09:03;;;;;;;;;2.00;2.00;;;;;21.98;35.37;101056.28;4948028;28;45168;-66
2022/07/28 00:11:29;;;;;;;;;1.33;1.33;;;;;22.06;35.34;101077.91;4943364;28;45187;-61
2022/07/28 00:13:54;;;;;;;;;4.67;2.00;;;;;22.09;35.25;101081.50;4943701;28;45848;-67
2022/07/28 00:16:20;;;;;;;;;2.33;2.33;;;;;21.64;35.46;100998.78;4944411;28;45164;-64
2022/07/28 00:18:45;;;;;;;;;1.00;1.00;;;;;21.84;35.51;101040.16;4953721;28;45268;-66
2022/07/28 00:21:10;;;;;;;;;2.00;2.00;;;;;21.94;35.47;101051.78;4952214;28;45313;-66
2022/07/28 00:23:36;;;;;;;;;2.33;2.00;;;;;22.08;35.17;101073.34;4940420;28;46332;-62
2022/07/28 00:26:01;;;;;;;;;1.00;1.00;;;;;22.09;35.29;101064.25;4946291;28;44866;-66
2022/07/28 00:28:26;;;;;;;;;3.00;2.00;;;;;22.08;35.38;101074.25;4944966;28;45191;-60
2022/07/28 00:30:54;;;;;;;;;3.00;3.00;;;;;22.05;35.71;101065.22;4946783;28;45281;-60
2022/07/28 00:33:19;;;;;;;;;2.00;2.00;;;;;22.00;35.52;101068.03;4946931;28;45385;-67
2022/07/28 00:35:45;;;;;;;;;3.00;3.00;;;;;22.00;35.51;101065.28;4930918;28;45220;-66
2022/07/28 00:38:10;;;;;;;;;1.67;1.67;;;;;21.98;35.65;101055.38;4947353;28;45123;-64
2022/07/28 00:43:19;;;;;;;;;1.00;1.00;;;;;21.83;35.92;101030.22;4945096;28;45532;-61
2022/07/28 00:45:45;;;;;;;;;3.00;2.00;;;;;21.93;35.76;101049.09;4940160;28;45197;-60
2022/07/28 00:48:10;;;;;;;;;2.00;2.00;;;;;21.75;35.88;101021.28;4928576;28;45318;-65
2022/07/28 00:50:38;;;;;;;;;3.00;1.33;;;;;21.80;36.10;101046.56;4950782;28;45185;-60
2022/07/28 00:53:05;;;;;;;;;3.00;2.33;;;;;21.60;36.21;101024.22;4944070;28;45330;-63
2022/07/28 00:55:30;;;;;;;;;1.33;1.33;;;;;21.75;35.92;101045.75;4952504;28;45230;-60
2022/07/28 00:57:56;;;;;;;;;2.00;2.00;;;;;21.48;35.85;100995.38;4946333;28;45328;-62
2022/07/28 01:00:21;;;;;;;;;1.33;1.33;;;;;21.67;36.33;101040.41;4948726;28;45070;-60
2022/07/28 01:02:47;;;;;;;;;2.00;2.00;;;;;21.68;36.14;101038.63;4941183;28;45870;-62
2022/07/28 01:05:14;;;;;;;;;1.67;1.00;;;;;21.47;36.31;101009.88;4951714;28;45118;-60
2022/07/28 01:07:54;;;;;;;;;2.00;2.00;;;;;21.45;36.24;101007.19;4949314;28;44957;-64
2022/07/28 01:10:55;;;;;;;;;2.00;2.00;;;;;21.55;36.65;101016.13;4951356;28;45242;-66
2022/07/28 01:13:31;;;;;;;;;3.00;1.00;;;;;21.59;36.36;101022.41;4934703;28;45910;-69
2022/07/28 01:16:01;;;;;;;;;1.00;1.00;;;;;21.43;36.58;101006.31;4939706;28;45176;-63
2022/07/28 01:18:52;;;;;;;;;1.33;1.33;;;;;21.55;36.26;101021.56;4948083;28;44967;-60
2022/07/28 01:21:25;;;;;;;;;3.00;2.00;;;;;21.44;36.44;101002.66;4941171;28;45035;-66
2022/07/28 01:24:12;;;;;;;;;2.00;2.00;;;;;21.57;36.65;101011.56;4939206;28;48060;-61
2022/07/28 01:27:09;;;;;;;;;2.00;2.00;;;;;21.57;36.48;101033.31;4949438;28;45139;-63
2022/07/28 01:30:04;;;;;;;;;1.00;1.00;;;;;21.58;36.67;101021.53;4944271;28;45064;-60
2022/07/28 01:32:36;;;;;;;;;1.33;1.33;;;;;21.51;36.63;101011.66;4942409;28;45186;-65
2022/07/28 01:35:20;;;;;;;;;2.67;2.00;;;;;21.44;36.66;101002.66;4951050;28;46035;-67
2022/07/28 01:37:50;;;;;;;;;1.00;1.00;;;;;21.53;36.68;101023.41;4939277;28;44937;-67
2022/07/28 01:40:19;;;;;;;;;1.00;1.00;;;;;21.12;36.49;100955.09;4938900;28;45175;-61
2022/07/28 01:42:50;;;;;;;;;1.00;1.00;;;;;21.39;36.58;100992.78;4926254;28;45127;-62
2022/07/28 01:45:18;;;;;;;;;1.00;1.00;;;;;21.44;36.66;101010.81;4950061;28;46740;-68
2022/07/28 01:47:45;;;;;;;;;1.00;1.00;;;;;21.46;36.62;101025.28;4951791;28;45064;-66
2022/07/28 01:50:12;;;;;;;;;1.00;1.00;;;;;21.43;36.81;101019.91;4953511;28;46357;-64
2022/07/28 01:52:41;;;;;;;;;2.00;2.00;;;;;21.39;36.65;100996.38;4938058;28;45304;-69
2022/07/28 01:55:08;;;;;;;;;1.33;1.33;;;;;21.30;36.83;100991.06;4938512;28;46587;-67
2022/07/28 01:57:35;;;;;;;;;2.00;2.00;;;;;21.33;36.74;101001.91;4942119;28;45147;-61
2022/07/28 02:00:04;;;;;;;;;1.00;1.00;;;;;21.41;36.99;101021.72;4950243;28;45265;-66
2022/07/28 02:02:31;;;;;;;;;4.00;2.00;;;;;21.37;37.05;101017.25;4941234;28;45165;-64
2022/07/28 02:04:58;;;;;;;;;1.67;1.00;;;;;21.40;37.19;101008.16;4950307;28;45354;-60
2022/07/28 02:07:26;;;;;;;;;0.33;0.33;;;;;21.40;36.94;101008.16;4944779;28;45171;-60
2022/07/28 02:09:53;;;;;;;;;3.00;1.00;;;;;21.30;36.93;101016.44;4940429;28;45189;-65
2022/07/28 02:12:20;;;;;;;;;1.00;1.00;;;;;20.84;37.37;100932.84;4947114;28;45173;-61
2022/07/28 02:14:49;;;;;;;;;1.00;1.00;;;;;21.30;37.29;101013.72;4945516;28;45709;-62
2022/07/28 02:17:17;;;;;;;;;1.00;1.00;;;;;21.32;37.22;101002.84;4941661;28;45021;-62
2022/07/28 02:19:46;;;;;;;;;2.00;0.00;;;;;21.34;37.18;100999.16;4944087;28;45090;-62
2022/07/28 02:22:13;;;;;;;;;2.00;1.00;;;;;21.19;37.17;100977.66;4941429;28;45251;-64
2022/07/28 02:24:40;;;;;;;;;1.00;1.00;;;;;21.13;37.17;100959.59;4942597;28;45841;-64
2022/07/28 02:27:21;;;;;;;;;2.33;2.33;;;;;21.28;36.93;100979.34;4935600;28;45299;-66
2022/07/28 02:30:00;;;;;;;;;1.67;0.67;;;;;21.35;37.24;100984.66;4940161;28;45052;-70
2022/07/28 02:32:38;;;;;;;;;2.00;2.00;;;;;21.24;37.16;100974.88;4950183;28;44986;-65
2022/07/28 02:35:38;;;;;;;;;1.00;1.00;;;;;21.30;37.57;100982.91;4943114;28;46244;-61
2022/07/28 02:38:20;;;;;;;;;1.67;1.67;;;;;21.26;37.41;100981.19;4937117;28;45022;-65
2022/07/28 02:40:48;;;;;;;;;1.33;1.33;;;;;21.30;37.67;100978.41;4937190;28;45223;-62
2022/07/28 02:43:18;;;;;;;;;1.00;1.00;;;;;21.32;37.78;100979.28;4935272;28;44906;-60
2022/07/28 02:45:47;;;;;;;;;2.00;2.00;;;;;21.33;37.66;100981.09;4944774;28;46531;-63
2022/07/28 02:48:17;;;;;;;;;1.00;1.00;;;;;21.35;37.58;100973.78;4943655;28;45062;-61
2022/07/28 02:50:44;;;;;;;;;1.33;1.33;;;;;21.37;37.43;100979.22;4944167;28;45051;-62
2022/07/28 02:53:13;;;;;;;;;2.00;2.00;;;;;21.12;37.18;100941.53;4939345;28;45211;-63
2022/07/28 02:55:39;;;;;;;;;3.00;1.67;;;;;21.34;37.44;100977.41;4938890;28;45194;-62
2022/07/28 02:58:07;;;;;;;;;2.00;2.00;;;;;21.23;37.59;100959.47;4948790;28;45023;-65
2022/07/28 03:00:34;;;;;;;;;1.00;1.00;;;;;21.31;37.85;100974.75;4945776;28;45044;-62
2022/07/28 03:03:00;;;;;;;;;2.00;2.00;;;;;21.33;37.47;100982.88;4927865;28;45031;-67
2022/07/28 03:05:27;;;;;;;;;3.00;2.00;;;;;21.32;37.70;100972.94;4950741;28;45100;-61
2022/07/28 03:07:53;;;;;;;;;2.33;2.33;;;;;21.29;37.52;100970.28;4944782;28;45253;-67
2022/07/28 03:10:27;;;;;;;;;3.00;2.00;;;;;20.87;37.81;100910.16;4947858;28;44974;-60
2022/07/28 03:12:55;;;;;;;;;3.00;2.00;;;;;21.21;37.77;100966.75;4936854;28;45217;-61
2022/07/28 03:15:21;;;;;;;;;4.67;3.33;;;;;21.03;37.82;100938.91;4949013;28;45759;-64
2022/07/28 03:17:46;;;;;;;;;5.00;3.00;;;;;21.17;37.74;100955.03;4948488;28;45458;-61
2022/07/28 03:20:12;;;;;;;;;1.67;1.67;;;;;21.31;37.68;100980.19;4947992;28;45219;-61
2022/07/28 03:22:38;;;;;;;;;2.00;2.00;;;;;21.33;37.72;100991.03;4944178;28;45031;-63
2022/07/28 03:25:28;;;;;;;;;2.00;2.00;;;;;21.32;37.83;100989.25;4946151;28;45436;-61
2022/07/28 03:27:56;;;;;;;;;2.67;2.00;;;;;21.31;37.73;100984.72;4935034;28;44882;-67
2022/07/28 03:30:27;;;;;;;;;3.00;2.00;;;;;21.02;37.76;100942.56;4946908;28;45240;-63
2022/07/28 03:32:59;;;;;;;;;0.00;0.00;;;;;21.24;38.03;100983.91;4942901;28;45125;-60
2022/07/28 03:35:26;;;;;;;;;2.67;2.67;;;;;21.14;37.78;100957.81;4948160;28;45423;-59
2022/07/28 03:38:00;;;;;;;;;2.33;2.00;;;;;21.27;37.88;100981.16;4949748;28;46265;-64
2022/07/28 03:40:28;;;;;;;;;1.00;1.00;;;;;21.18;38.06;100970.41;4944860;28;45091;-60
2022/07/28 03:42:55;;;;;;;;;2.00;1.00;;;;;21.08;38.19;100957.88;4950598;28;45157;-63
2022/07/28 03:45:22;;;;;;;;;2.67;2.00;;;;;21.04;38.18;100946.16;4945598;28;45936;-64
2022/07/28 03:47:49;;;;;;;;;2.00;2.00;;;;;20.26;38.21;100812.31;4940706;28;45296;-66
2022/07/28 03:50:14;;;;;;;;;4.33;4.33;;;;;20.95;38.14;100949.00;4946909;28;45181;-63
2022/07/28 03:52:40;;;;;;;;;4.00;2.67;;;;;21.10;38.08;100969.63;4945290;28;45316;-67
2022/07/28 03:55:06;;;;;;;;;2.00;2.00;;;;;21.17;38.19;100969.53;4943317;28;45481;-67
2022/07/28 03:57:31;;;;;;;;;3.00;3.00;;;;;21.11;37.97;100968.72;4947460;28;45071;-60
2022/07/28 03:59:57;;;;;;;;;2.00;2.00;;;;;20.93;38.54;100946.28;4935066;28;49671;-62
2022/07/28 04:02:22;;;;;;;;;2.00;2.00;;;;;20.89;38.65;100943.66;4950835;28;45123;-67
2022/07/28 04:04:47;;;;;;;;;2.67;2.67;;;;;20.97;38.80;100960.75;4947522;28;45051;-62
2022/07/28 04:07:13;;;;;;;;;3.00;3.00;;;;;21.02;38.69;100977.88;4949947;28;45070;-64
2022/07/28 04:09:38;;;;;;;;;1.00;1.00;;;;;21.04;38.58;100986.03;4946458;28;45449;-69
2022/07/28 04:12:04;;;;;;;;;4.00;2.00;;;;;20.96;38.49;100972.53;4953374;28;44977;-66
2022/07/28 04:14:29;;;;;;;;;2.00;2.00;;;;;20.95;38.82;100987.00;4947757;28;46060;-66
2022/07/28 04:16:54;;;;;;;;;2.00;2.00;;;;;20.77;39.13;100961.91;4935065;28;45104;-61
2022/07/28 04:19:20;;;;;;;;;5.00;2.33;;;;;20.76;39.00;100964.63;4955348;28;45122;-60
2022/07/28 04:21:45;;;;;;;;;5.67;4.00;;;;;20.67;39.27;100960.19;4949194;28;45103;-62
2022/07/28 04:24:10;;;;;;;;;3.67;2.67;;;;;20.53;39.32;100945.88;4931537;28;47398;-63
2022/07/28 04:26:37;;;;;;;;;2.00;1.00;;;;;20.77;39.16;100983.63;4959389;28;45032;-62
2022/07/28 04:29:02;;;;;;;;;3.67;3.67;;;;;20.61;39.28;100954.81;4949718;28;46033;-66
2022/07/28 04:31:27;;;;;;;;;2.00;2.00;;;;;20.80;38.99;100980.88;4953430;28;45210;-58
2022/07/28 04:33:53;;;;;;;;;3.00;3.00;;;;;20.83;39.25;100970.88;4935958;28;46412;-71
2022/07/28 04:36:18;;;;;;;;;2.00;2.00;;;;;20.81;39.04;100968.19;4953670;28;45212;-65
2022/07/28 04:38:43;;;;;;;;;4.00;4.00;;;;;20.76;39.13;100954.66;4946135;28;45603;-68
2022/07/28 04:41:09;;;;;;;;;2.00;2.00;;;;;20.36;39.25;100891.78;4941822;28;45219;-63
2022/07/28 04:43:36;;;;;;;;;6.00;2.00;;;;;20.73;39.17;100940.22;4945560;28;45503;-64
2022/07/28 04:46:01;;;;;;;;;4.00;4.00;;;;;20.71;39.23;100942.97;4935690;28;45120;-65
2022/07/28 04:48:26;;;;;;;;;4.33;3.00;;;;;20.68;39.10;100936.69;4953591;28;45007;-67
2022/07/28 04:50:52;;;;;;;;;4.67;2.00;;;;;20.74;39.27;100955.59;4936812;28;45418;-68
2022/07/28 04:53:17;;;;;;;;;2.00;2.00;;;;;20.83;39.28;100968.16;4942734;28;46389;-61
2022/07/28 04:55:43;;;;;;;;;3.67;2.33;;;;;20.69;39.37;100950.25;4945294;28;45035;-62
2022/07/28 04:58:08;;;;;;;;;6.00;3.00;;;;;20.83;39.26;100977.22;4950189;28;45151;-67
2022/07/28 05:00:34;;;;;;;;;3.00;2.00;;;;;20.72;39.28;100957.44;4944680;28;45257;-71
2022/07/28 05:03:01;;;;;;;;;4.67;2.67;;;;;20.74;39.56;100975.50;4946791;28;45400;-62
2022/07/28 05:05:27;;;;;;;;;2.00;2.00;;;;;20.53;39.51;100926.88;4946887;28;45155;-61
2022/07/28 05:07:53;;;;;;;;;2.00;2.00;;;;;20.65;39.69;100958.44;4947624;28;45196;-61
2022/07/28 05:10:19;;;;;;;;;4.33;4.33;;;;;20.78;39.47;100966.41;4942674;28;45129;-60
2022/07/28 05:12:46;;;;;;;;;3.00;3.00;;;;;20.82;40.28;100967.25;4937890;28;47853;-63
2022/07/28 05:15:11;;;;;;;;;4.00;4.00;;;;;20.66;40.84;100936.69;4948918;28;45120;-65
2022/07/28 05:17:36;;;;;;;;;8.00;7.67;;;;;20.78;40.09;100965.50;4954146;28;45076;-66
2022/07/28 05:20:04;;;;;;;;;2.33;2.33;;;;;20.61;40.13;100930.41;4940887;28;45139;-70
2022/07/28 05:22:43;;;;;;;;;6.67;4.67;;;;;20.71;39.99;100948.41;4940925;28;46225;-64
2022/07/28 05:25:20;;;;;;;;;4.00;4.00;;;;;20.61;40.08;100950.28;4928313;28;45181;-68
2022/07/28 05:27:47;;;;;;;;;26.75;26.25;;;;;20.66;40.47;100953.00;4932459;28;45444;-69
2022/07/28 05:30:14;;;;;;;;;8.33;8.00;;;;;20.64;40.69;100954.81;4929388;28;45529;-68
2022/07/28 05:32:40;;;;;;;;;3.67;3.33;;;;;20.63;40.11;100947.59;4948407;28;45418;-65
2022/07/28 05:35:06;;;;;;;;;9.67;8.67;;;;;20.67;40.21;100948.44;4944889;28;45251;-68
2022/07/28 05:37:34;;;;;;;;;7.00;6.33;;;;;20.91;40.54;100977.13;4944939;28;45371;-67
2022/07/28 05:40:12;;;;;;;;;7.00;5.67;;;;;20.94;39.72;100971.66;4945974;28;45519;-64
2022/07/28 05:42:39;;;;;;;;;7.00;4.00;;;;;20.78;39.84;100944.66;4936393;28;45730;-66
